sensor_id;sensor_type;location;lat;lon;timestamp;P1;durP1;ratioP1;P2;durP2;ratioP2
1054;SDS011;516;51.482;7.120;2023-05-20T00:03:18;10.10;;;9.80;;
1054;SDS011;516;51.482;7.120;2023-05-20T00:18:53;9.70;;;9.40;;
1054;SDS011;516;51.482;7.120;2023-05-20T00:24:42;9.67;;;9.37;;
1054;SDS011;516;51.482;7.120;2023-05-20T00:30:30;9.67;;;9.37;;
1054;SDS011;516;51.482;7.120;2023-05-20T00:36:18;9.53;;;9.17;;
1054;SDS011;516;51.482;7.120;2023-05-20T00:42:06;9.57;;;9.27;;
1054;SDS011;516;51.482;7.120;2023-05-20T00:47:53;9.73;;;9.43;;
1054;SDS011;516;51.482;7.120;2023-05-20T00:53:45;10.30;;;9.90;;
1054;SDS011;516;51.482;7.120;2023-05-20T00:59:33;9.80;;;9.50;;
1054;SDS011;516;51.482;7.120;2023-05-20T01:05:22;9.63;;;9.33;;
1054;SDS011;516;51.482;7.120;2023-05-20T01:11:08;9.40;;;9.10;;
1054;SDS011;516;51.482;7.120;2023-05-20T01:17:02;9.50;;;9.20;;
1054;SDS011;516;51.482;7.120;2023-05-20T01:22:55;9.60;;;9.30;;
1054;SDS011;516;51.482;7.120;2023-05-20T01:28:43;10.43;;;9.83;;
1054;SDS011;516;51.482;7.120;2023-05-20T01:34:31;9.37;;;9.07;;
1054;SDS011;516;51.482;7.120;2023-05-20T01:40:20;9.40;;;9.10;;
1054;SDS011;516;51.482;7.120;2023-05-20T01:46:09;9.30;;;9.00;;
1054;SDS011;516;51.482;7.120;2023-05-20T01:51:57;9.10;;;8.80;;
1054;SDS011;516;51.482;7.120;2023-05-20T01:57:46;8.80;;;8.50;;
1054;SDS011;516;51.482;7.120;2023-05-20T02:03:14;9.10;;;8.80;;
1054;SDS011;516;51.482;7.120;2023-05-20T02:18:55;8.17;;;7.87;;
1054;SDS011;516;51.482;7.120;2023-05-20T02:24:44;8.03;;;7.73;;
1054;SDS011;516;51.482;7.120;2023-05-20T02:30:32;9.03;;;8.33;;
1054;SDS011;516;51.482;7.120;2023-05-20T02:36:20;7.33;;;7.10;;
1054;SDS011;516;51.482;7.120;2023-05-20T02:42:07;7.80;;;7.50;;
1054;SDS011;516;51.482;7.120;2023-05-20T02:47:55;7.67;;;7.37;;
1054;SDS011;516;51.482;7.120;2023-05-20T02:53:43;7.40;;;7.10;;
1054;SDS011;516;51.482;7.120;2023-05-20T02:59:32;6.87;;;6.67;;
1054;SDS011;516;51.482;7.120;2023-05-20T03:05:20;7.17;;;6.97;;
1054;SDS011;516;51.482;7.120;2023-05-20T03:11:04;6.67;;;6.47;;
1054;SDS011;516;51.482;7.120;2023-05-20T03:16:52;6.50;;;6.30;;
1054;SDS011;516;51.482;7.120;2023-05-20T03:22:42;7.00;;;6.80;;
1054;SDS011;516;51.482;7.120;2023-05-20T03:28:29;7.43;;;7.17;;
1054;SDS011;516;51.482;7.120;2023-05-20T03:34:17;7.60;;;7.30;;
1054;SDS011;516;51.482;7.120;2023-05-20T03:40:05;7.90;;;7.50;;
1054;SDS011;516;51.482;7.120;2023-05-20T03:45:56;7.47;;;7.20;;
1054;SDS011;516;51.482;7.120;2023-05-20T03:51:43;7.83;;;7.53;;
1054;SDS011;516;51.482;7.120;2023-05-20T03:57:31;8.00;;;7.70;;
1054;SDS011;516;51.482;7.120;2023-05-20T04:03:20;7.37;;;7.07;;
1054;SDS011;516;51.482;7.120;2023-05-20T04:18:58;7.43;;;7.13;;
1054;SDS011;516;51.482;7.120;2023-05-20T04:24:47;9.23;;;8.83;;
1054;SDS011;516;51.482;7.120;2023-05-20T04:30:35;7.53;;;7.23;;
1054;SDS011;516;51.482;7.120;2023-05-20T04:36:22;10.10;;;9.27;;
1054;SDS011;516;51.482;7.120;2023-05-20T04:42:14;8.13;;;7.83;;
1054;SDS011;516;51.482;7.120;2023-05-20T04:48:04;36.40;;;28.07;;
1054;SDS011;516;51.482;7.120;2023-05-20T04:53:52;8.40;;;8.10;;
1054;SDS011;516;51.482;7.120;2023-05-20T04:59:40;8.53;;;8.23;;
1054;SDS011;516;51.482;7.120;2023-05-20T05:05:28;10.13;;;9.70;;
1054;SDS011;516;51.482;7.120;2023-05-20T05:11:04;8.73;;;8.43;;
1054;SDS011;516;51.482;7.120;2023-05-20T05:16:53;9.93;;;9.53;;
1054;SDS011;516;51.482;7.120;2023-05-20T05:22:41;17.50;;;16.07;;
1054;SDS011;516;51.482;7.120;2023-05-20T05:28:29;13.83;;;12.80;;
1054;SDS011;516;51.482;7.120;2023-05-20T05:34:16;9.70;;;9.30;;
1054;SDS011;516;51.482;7.120;2023-05-20T05:40:05;13.03;;;12.07;;
1054;SDS011;516;51.482;7.120;2023-05-20T05:45:54;10.00;;;9.50;;
1054;SDS011;516;51.482;7.120;2023-05-20T05:51:42;11.57;;;11.00;;
1054;SDS011;516;51.482;7.120;2023-05-20T05:57:30;11.20;;;10.80;;
1054;SDS011;516;51.482;7.120;2023-05-20T06:03:18;11.30;;;10.90;;
1054;SDS011;516;51.482;7.120;2023-05-20T06:18:57;12.30;;;11.80;;
1054;SDS011;516;51.482;7.120;2023-05-20T06:24:45;16.17;;;15.10;;
1054;SDS011;516;51.482;7.120;2023-05-20T06:30:32;15.70;;;13.47;;
1054;SDS011;516;51.482;7.120;2023-05-20T06:36:20;14.57;;;13.77;;
1054;SDS011;516;51.482;7.120;2023-05-20T06:42:08;12.80;;;12.23;;
1054;SDS011;516;51.482;7.120;2023-05-20T06:47:55;13.87;;;13.07;;
1054;SDS011;516;51.482;7.120;2023-05-20T06:53:43;13.83;;;13.13;;
1054;SDS011;516;51.482;7.120;2023-05-20T06:59:31;11.87;;;11.47;;
1054;SDS011;516;51.482;7.120;2023-05-20T07:05:19;13.10;;;12.50;;
1054;SDS011;516;51.482;7.120;2023-05-20T07:11:22;14.10;;;13.47;;
1054;SDS011;516;51.482;7.120;2023-05-20T07:17:10;11.90;;;11.40;;
1054;SDS011;516;51.482;7.120;2023-05-20T07:22:58;14.10;;;13.30;;
1054;SDS011;516;51.482;7.120;2023-05-20T07:28:46;12.90;;;12.30;;
1054;SDS011;516;51.482;7.120;2023-05-20T07:34:33;12.60;;;12.07;;
1054;SDS011;516;51.482;7.120;2023-05-20T07:40:24;14.17;;;13.43;;
1054;SDS011;516;51.482;7.120;2023-05-20T07:46:11;31.77;;;14.37;;
1054;SDS011;516;51.482;7.120;2023-05-20T07:51:59;12.57;;;11.97;;
1054;SDS011;516;51.482;7.120;2023-05-20T07:57:47;16.30;;;12.70;;
1054;SDS011;516;51.482;7.120;2023-05-20T08:03:35;13.63;;;12.83;;
1054;SDS011;516;51.482;7.120;2023-05-20T08:19:00;13.37;;;12.73;;
1054;SDS011;516;51.482;7.120;2023-05-20T08:24:48;14.50;;;13.33;;
1054;SDS011;516;51.482;7.120;2023-05-20T08:30:36;14.37;;;13.47;;
1054;SDS011;516;51.482;7.120;2023-05-20T08:36:24;13.63;;;12.83;;
1054;SDS011;516;51.482;7.120;2023-05-20T08:42:12;13.50;;;12.90;;
1054;SDS011;516;51.482;7.120;2023-05-20T08:47:59;12.50;;;12.00;;
1054;SDS011;516;51.482;7.120;2023-05-20T08:53:47;15.00;;;13.80;;
1054;SDS011;516;51.482;7.120;2023-05-20T08:59:35;11.73;;;11.33;;
1054;SDS011;516;51.482;7.120;2023-05-20T09:05:23;14.10;;;13.30;;
1054;SDS011;516;51.482;7.120;2023-05-20T09:11:23;15.10;;;14.30;;
1054;SDS011;516;51.482;7.120;2023-05-20T09:17:11;13.30;;;12.70;;
1054;SDS011;516;51.482;7.120;2023-05-20T09:23:05;12.27;;;11.70;;
1054;SDS011;516;51.482;7.120;2023-05-20T09:28:56;13.60;;;12.90;;
1054;SDS011;516;51.482;7.120;2023-05-20T09:34:44;13.03;;;12.43;;
1054;SDS011;516;51.482;7.120;2023-05-20T09:40:32;12.67;;;12.10;;
1054;SDS011;516;51.482;7.120;2023-05-20T09:46:23;14.37;;;13.57;;
1054;SDS011;516;51.482;7.120;2023-05-20T09:52:11;14.93;;;13.73;;
1054;SDS011;516;51.482;7.120;2023-05-20T09:58:01;14.50;;;13.83;;
1054;SDS011;516;51.482;7.120;2023-05-20T10:03:49;12.87;;;12.20;;
1054;SDS011;516;51.482;7.120;2023-05-20T10:13:17;15.37;;;14.37;;
1054;SDS011;516;51.482;7.120;2023-05-20T10:19:46;14.70;;;13.77;;
1054;SDS011;516;51.482;7.120;2023-05-20T10:25:35;13.20;;;12.10;;
1054;SDS011;516;51.482;7.120;2023-05-20T10:31:23;11.77;;;11.27;;
1054;SDS011;516;51.482;7.120;2023-05-20T10:37:19;13.80;;;13.13;;
1054;SDS011;516;51.482;7.120;2023-05-20T10:43:45;13.87;;;13.17;;
1054;SDS011;516;51.482;7.120;2023-05-20T10:49:33;13.03;;;12.43;;
1054;SDS011;516;51.482;7.120;2023-05-20T10:55:22;12.67;;;12.10;;
1054;SDS011;516;51.482;7.120;2023-05-20T11:01:09;14.17;;;13.40;;
1054;SDS011;516;51.482;7.120;2023-05-20T11:06:57;12.10;;;11.60;;
1054;SDS011;516;51.482;7.120;2023-05-20T11:12:45;12.80;;;12.30;;
1054;SDS011;516;51.482;7.120;2023-05-20T11:18:35;13.03;;;12.40;;
1054;SDS011;516;51.482;7.120;2023-05-20T11:24:25;12.03;;;11.63;;
1054;SDS011;516;51.482;7.120;2023-05-20T11:30:13;11.77;;;11.37;;
1054;SDS011;516;51.482;7.120;2023-05-20T11:36:02;16.40;;;15.53;;
1054;SDS011;516;51.482;7.120;2023-05-20T11:41:50;15.10;;;13.60;;
1054;SDS011;516;51.482;7.120;2023-05-20T11:47:38;15.30;;;14.33;;
1054;SDS011;516;51.482;7.120;2023-05-20T11:53:25;14.07;;;13.17;;
1054;SDS011;516;51.482;7.120;2023-05-20T11:59:13;14.20;;;13.57;;
1054;SDS011;516;51.482;7.120;2023-05-20T12:05:01;14.67;;;14.00;;
1054;SDS011;516;51.482;7.120;2023-05-20T12:10:49;15.87;;;14.87;;
1054;SDS011;516;51.482;7.120;2023-05-20T12:16:36;13.80;;;13.17;;
1054;SDS011;516;51.482;7.120;2023-05-20T12:22:24;14.70;;;14.00;;
1054;SDS011;516;51.482;7.120;2023-05-20T12:28:12;14.40;;;13.80;;
1054;SDS011;516;51.482;7.120;2023-05-20T12:33:59;13.80;;;13.23;;
1054;SDS011;516;51.482;7.120;2023-05-20T12:39:47;14.80;;;14.20;;
1054;SDS011;516;51.482;7.120;2023-05-20T12:45:35;15.90;;;14.93;;
1054;SDS011;516;51.482;7.120;2023-05-20T12:51:23;14.77;;;14.17;;
1054;SDS011;516;51.482;7.120;2023-05-20T12:57:10;15.00;;;14.30;;
1054;SDS011;516;51.482;7.120;2023-05-20T13:02:58;13.30;;;12.70;;
1054;SDS011;516;51.482;7.120;2023-05-20T13:08:46;14.90;;;14.20;;
1054;SDS011;516;51.482;7.120;2023-05-20T13:14:34;15.33;;;14.27;;
1054;SDS011;516;51.482;7.120;2023-05-20T13:20:22;14.23;;;13.53;;
1054;SDS011;516;51.482;7.120;2023-05-20T13:26:10;14.60;;;14.00;;
1054;SDS011;516;51.482;7.120;2023-05-20T13:31:58;12.80;;;12.40;;
1054;SDS011;516;51.482;7.120;2023-05-20T13:37:45;12.73;;;12.23;;
1054;SDS011;516;51.482;7.120;2023-05-20T13:43:33;13.63;;;12.97;;
1054;SDS011;516;51.482;7.120;2023-05-20T13:49:20;12.70;;;12.20;;
1054;SDS011;516;51.482;7.120;2023-05-20T13:54:50;15.37;;;14.57;;
1054;SDS011;516;51.482;7.120;2023-05-20T14:00:38;14.33;;;13.83;;
1054;SDS011;516;51.482;7.120;2023-05-20T14:06:25;13.60;;;13.10;;
1054;SDS011;516;51.482;7.120;2023-05-20T14:15:37;14.20;;;13.60;;
1054;SDS011;516;51.482;7.120;2023-05-20T14:21:25;14.10;;;13.40;;
1054;SDS011;516;51.482;7.120;2023-05-20T14:27:12;14.40;;;13.80;;
1054;SDS011;516;51.482;7.120;2023-05-20T14:33:00;14.30;;;13.60;;
1054;SDS011;516;51.482;7.120;2023-05-20T14:38:48;13.50;;;13.00;;
1054;SDS011;516;51.482;7.120;2023-05-20T14:44:36;12.20;;;11.80;;
1054;SDS011;516;51.482;7.120;2023-05-20T14:50:24;15.23;;;14.53;;
1054;SDS011;516;51.482;7.120;2023-05-20T14:56:11;12.77;;;12.37;;
1054;SDS011;516;51.482;7.120;2023-05-20T15:01:59;12.60;;;12.10;;
1054;SDS011;516;51.482;7.120;2023-05-20T15:07:47;15.47;;;14.70;;
1054;SDS011;516;51.482;7.120;2023-05-20T15:13:23;13.47;;;12.90;;
1054;SDS011;516;51.482;7.120;2023-05-20T15:19:11;13.80;;;13.00;;
1054;SDS011;516;51.482;7.120;2023-05-20T15:24:59;13.07;;;12.57;;
1054;SDS011;516;51.482;7.120;2023-05-20T15:30:50;13.80;;;13.00;;
1054;SDS011;516;51.482;7.120;2023-05-20T15:36:40;12.90;;;12.40;;
1054;SDS011;516;51.482;7.120;2023-05-20T15:42:27;15.73;;;14.70;;
1054;SDS011;516;51.482;7.120;2023-05-20T15:48:15;16.50;;;15.53;;
1054;SDS011;516;51.482;7.120;2023-05-20T15:54:03;13.13;;;12.63;;
1054;SDS011;516;51.482;7.120;2023-05-20T15:59:50;17.57;;;16.53;;
1054;SDS011;516;51.482;7.120;2023-05-20T16:05:38;14.07;;;13.47;;
1054;SDS011;516;51.482;7.120;2023-05-20T16:21:12;12.90;;;12.40;;
1054;SDS011;516;51.482;7.120;2023-05-20T16:27:00;12.57;;;12.17;;
1054;SDS011;516;51.482;7.120;2023-05-20T16:32:48;15.13;;;14.43;;
1054;SDS011;516;51.482;7.120;2023-05-20T16:38:38;13.33;;;12.70;;
1054;SDS011;516;51.482;7.120;2023-05-20T16:44:25;14.33;;;13.63;;
1054;SDS011;516;51.482;7.120;2023-05-20T16:50:13;12.97;;;12.27;;
1054;SDS011;516;51.482;7.120;2023-05-20T16:56:01;11.20;;;10.70;;
1054;SDS011;516;51.482;7.120;2023-05-20T17:01:50;11.23;;;10.83;;
1054;SDS011;516;51.482;7.120;2023-05-20T17:07:37;14.00;;;13.30;;
1054;SDS011;516;51.482;7.120;2023-05-20T17:13:23;11.50;;;11.10;;
1054;SDS011;516;51.482;7.120;2023-05-20T17:19:10;11.57;;;11.17;;
1054;SDS011;516;51.482;7.120;2023-05-20T17:24:58;11.60;;;11.20;;
1054;SDS011;516;51.482;7.120;2023-05-20T17:30:46;12.37;;;11.83;;
1054;SDS011;516;51.482;7.120;2023-05-20T17:36:34;14.23;;;13.30;;
1054;SDS011;516;51.482;7.120;2023-05-20T17:42:22;10.80;;;10.37;;
1054;SDS011;516;51.482;7.120;2023-05-20T17:48:10;13.23;;;12.33;;
1054;SDS011;516;51.482;7.120;2023-05-20T17:53:58;11.73;;;11.30;;
1054;SDS011;516;51.482;7.120;2023-05-20T17:59:49;12.43;;;11.93;;
1054;SDS011;516;51.482;7.120;2023-05-20T18:05:37;11.80;;;11.40;;
1054;SDS011;516;51.482;7.120;2023-05-20T18:21:15;11.77;;;11.37;;
1054;SDS011;516;51.482;7.120;2023-05-20T18:27:02;12.00;;;11.60;;
1054;SDS011;516;51.482;7.120;2023-05-20T18:32:50;13.97;;;13.10;;
1054;SDS011;516;51.482;7.120;2023-05-20T18:38:39;10.90;;;10.50;;
1054;SDS011;516;51.482;7.120;2023-05-20T18:44:26;11.37;;;10.97;;
1054;SDS011;516;51.482;7.120;2023-05-20T18:50:14;11.23;;;10.83;;
1054;SDS011;516;51.482;7.120;2023-05-20T18:56:02;10.23;;;9.93;;
1054;SDS011;516;51.482;7.120;2023-05-20T19:01:51;12.33;;;11.83;;
1054;SDS011;516;51.482;7.120;2023-05-20T19:07:39;12.10;;;11.50;;
1054;SDS011;516;51.482;7.120;2023-05-20T19:13:21;12.13;;;11.43;;
1054;SDS011;516;51.482;7.120;2023-05-20T19:19:09;10.20;;;9.90;;
1054;SDS011;516;51.482;7.120;2023-05-20T19:24:57;10.13;;;9.73;;
1054;SDS011;516;51.482;7.120;2023-05-20T19:30:44;12.23;;;11.60;;
1054;SDS011;516;51.482;7.120;2023-05-20T19:36:32;10.50;;;10.00;;
1054;SDS011;516;51.482;7.120;2023-05-20T19:42:20;13.80;;;12.90;;
1054;SDS011;516;51.482;7.120;2023-05-20T19:48:08;10.27;;;9.83;;
1054;SDS011;516;51.482;7.120;2023-05-20T19:53:18;10.10;;;9.60;;
1054;SDS011;516;51.482;7.120;2023-05-20T19:59:07;8.80;;;8.50;;
1054;SDS011;516;51.482;7.120;2023-05-20T20:04:55;8.70;;;8.40;;
1054;SDS011;516;51.482;7.120;2023-05-20T20:10:45;13.37;;;12.50;;
1054;SDS011;516;51.482;7.120;2023-05-20T20:16:32;8.67;;;8.37;;
1054;SDS011;516;51.482;7.120;2023-05-20T20:22:20;8.47;;;8.17;;
1054;SDS011;516;51.482;7.120;2023-05-20T20:28:08;8.83;;;8.43;;
1054;SDS011;516;51.482;7.120;2023-05-20T20:33:57;8.13;;;7.80;;
1054;SDS011;516;51.482;7.120;2023-05-20T20:39:44;9.23;;;8.73;;
1054;SDS011;516;51.482;7.120;2023-05-20T20:45:32;7.00;;;6.80;;
1054;SDS011;516;51.482;7.120;2023-05-20T20:51:22;6.67;;;6.47;;
1054;SDS011;516;51.482;7.120;2023-05-20T20:57:10;6.90;;;6.70;;
1054;SDS011;516;51.482;7.120;2023-05-20T21:02:59;7.13;;;6.83;;
1054;SDS011;516;51.482;7.120;2023-05-20T21:08:47;6.33;;;6.13;;
1054;SDS011;516;51.482;7.120;2023-05-20T21:17:57;6.30;;;6.10;;
1054;SDS011;516;51.482;7.120;2023-05-20T21:23:45;4.70;;;4.50;;
1054;SDS011;516;51.482;7.120;2023-05-20T21:29:33;4.70;;;4.50;;
1054;SDS011;516;51.482;7.120;2023-05-20T21:35:21;5.27;;;5.07;;
1054;SDS011;516;51.482;7.120;2023-05-20T21:41:09;4.97;;;4.77;;
1054;SDS011;516;51.482;7.120;2023-05-20T21:46:57;6.60;;;6.20;;
1054;SDS011;516;51.482;7.120;2023-05-20T21:52:44;4.43;;;4.23;;
1054;SDS011;516;51.482;7.120;2023-05-20T21:58:32;4.50;;;4.30;;
1054;SDS011;516;51.482;7.120;2023-05-20T22:04:26;4.10;;;3.97;;
1054;SDS011;516;51.482;7.120;2023-05-20T22:10:14;4.83;;;4.63;;
1054;SDS011;516;51.482;7.120;2023-05-20T22:15:53;5.10;;;4.90;;
1054;SDS011;516;51.482;7.120;2023-05-20T22:21:41;35.40;;;5.70;;
1054;SDS011;516;51.482;7.120;2023-05-20T22:27:31;4.80;;;4.60;;
1054;SDS011;516;51.482;7.120;2023-05-20T22:33:19;6.47;;;6.17;;
1054;SDS011;516;51.482;7.120;2023-05-20T22:39:08;4.77;;;4.57;;
1054;SDS011;516;51.482;7.120;2023-05-20T22:44:58;4.90;;;4.70;;
1054;SDS011;516;51.482;7.120;2023-05-20T22:50:46;4.50;;;4.30;;
1054;SDS011;516;51.482;7.120;2023-05-20T22:56:34;4.30;;;4.10;;
1054;SDS011;516;51.482;7.120;2023-05-20T23:02:22;4.93;;;4.70;;
1054;SDS011;516;51.482;7.120;2023-05-20T23:08:10;3.57;;;3.47;;
1054;SDS011;516;51.482;7.120;2023-05-20T23:23:25;3.80;;;3.70;;
1054;SDS011;516;51.482;7.120;2023-05-20T23:29:13;3.60;;;3.50;;
1054;SDS011;516;51.482;7.120;2023-05-20T23:35:01;4.37;;;4.17;;
1054;SDS011;516;51.482;7.120;2023-05-20T23:40:50;3.20;;;3.10;;
1054;SDS011;516;51.482;7.120;2023-05-20T23:46:38;3.73;;;3.60;;
1054;SDS011;516;51.482;7.120;2023-05-20T23:52:26;5.53;;;5.33;;
1054;SDS011;516;51.482;7.120;2023-05-20T23:58:14;4.27;;;4.00;;
